Time;durP1;ratioP1;P1;durP2;ratioP2;P2;SDS_P1;SDS_P2;PMS_P1;PMS_P2;Temp;Humidity;BMP_temperature;BMP_pressure;BME280_temperature;BME280_humidity;BME280_pressure;Samples;Min_cycle;Max_cycle;Signal;HPM_P1;HPM_P2
2021/06/08 00:02:14;;;;;;;8.18;6.60;;;;;;;18.87;68.97;100310.22;5053808;28;20044;-77
2021/06/08 00:04:42;;;;;;;8.55;6.60;;;;;;;18.64;69.59;100314.19;5054040;28;20445;-76
2021/06/08 00:07:12;;;;;;;8.80;6.32;;;;;;;18.36;70.85;100315.03;5053639;28;20505;-76
2021/06/08 00:09:41;;;;;;;9.57;6.85;;;;;;;18.52;70.25;100309.91;5053963;28;20067;-76
2021/06/08 00:12:10;;;;;;;11.38;6.53;;;;;;;18.61;69.57;100309.06;5053684;28;20072;-76
2021/06/08 00:14:37;;;;;;;8.70;5.90;;;;;;;18.54;69.68;100302.53;5053956;28;20099;-77
2021/06/08 00:17:05;;;;;;;8.55;6.18;;;;;;;18.62;69.37;100304.50;5053422;28;20048;-76
2021/06/08 00:19:33;;;;;;;8.00;6.40;;;;;;;18.57;69.44;100307.66;5052700;28;20056;-76
2021/06/08 00:22:01;;;;;;;8.10;6.07;;;;;;;18.59;69.58;100311.03;5052337;28;20076;-76
2021/06/08 00:24:29;;;;;;;7.05;5.65;;;;;;;18.73;68.94;100301.72;5052641;28;20057;-76
2021/06/08 00:27:00;;;;;;;9.32;6.20;;;;;;;18.61;69.52;100311.75;5053406;28;20043;-77
2021/06/08 00:29:27;;;;;;;7.82;6.07;;;;;;;18.63;69.46;100307.09;5053711;28;20037;-76
2021/06/08 00:31:55;;;;;;;9.32;6.22;;;;;;;18.60;69.62;100308.19;5053483;28;20049;-80
2021/06/08 00:34:23;;;;;;;7.53;6.32;;;;;;;18.46;70.09;100305.94;5053771;28;20090;-77
2021/06/08 00:36:51;;;;;;;8.63;6.53;;;;;;;18.36;70.57;100306.94;5053347;28;20053;-76
2021/06/08 00:39:18;;;;;;;8.18;6.13;;;;;;;18.51;70.17;100311.75;5053252;28;20052;-76
2021/06/08 00:41:46;;;;;;;8.15;6.38;;;;;;;18.36;70.76;100304.22;5052653;28;20040;-76
2021/06/08 00:44:17;;;;;;;8.35;6.70;;;;;;;18.33;70.86;100307.19;5052946;28;20410;-76
2021/06/08 00:46:46;;;;;;;8.10;6.32;;;;;;;18.33;70.67;100305.34;5053796;28;20422;-76
2021/06/08 00:49:15;;;;;;;10.20;6.72;;;;;;;18.35;71.14;100307.94;5053331;28;20087;-76
2021/06/08 00:51:43;;;;;;;7.60;5.90;;;;;;;18.33;70.90;100304.47;5053557;28;20044;-76
2021/06/08 00:54:11;;;;;;;7.60;5.97;;;;;;;18.19;71.52;100297.66;5052958;28;20448;-76
2021/06/08 00:56:41;;;;;;;7.63;6.18;;;;;;;18.14;72.22;100300.75;5053097;28;20555;-76
2021/06/08 00:59:10;;;;;;;7.85;6.53;;;;;;;18.35;71.16;100299.81;5053163;28;20083;-76
2021/06/08 01:01:39;;;;;;;11.00;6.97;;;;;;;18.38;71.28;100299.53;5053200;28;20099;-76
2021/06/08 01:04:09;;;;;;;8.40;6.47;;;;;;;18.26;72.01;100306.91;5052888;28;20041;-76
2021/06/08 01:06:39;;;;;;;8.13;6.40;;;;;;;18.11;72.97;100301.06;5052962;28;20087;-76
2021/06/08 01:09:08;;;;;;;9.77;6.47;;;;;;;18.23;72.61;100299.06;5052574;28;20051;-76
2021/06/08 01:11:36;;;;;;;9.23;7.13;;;;;;;18.22;72.60;100298.22;5053147;28;20037;-76
2021/06/08 01:14:04;;;;;;;10.68;6.97;;;;;;;18.46;71.64;100299.69;5052824;28;20514;-76
2021/06/08 01:16:35;;;;;;;8.98;6.90;;;;;;;18.33;72.21;100299.94;5053168;28;20041;-76
2021/06/08 01:19:05;;;;;;;8.68;6.75;;;;;;;18.31;72.37;100301.94;5052772;28;20448;-78
2021/06/08 01:21:34;;;;;;;9.95;6.60;;;;;;;18.34;72.61;100303.53;5052818;28;20049;-76
2021/06/08 01:24:03;;;;;;;9.88;7.07;;;;;;;18.26;72.65;100301.53;5052759;28;20444;-76
2021/06/08 01:26:31;;;;;;;8.23;6.32;;;;;;;18.24;72.52;100301.66;5052914;28;20045;-76
2021/06/08 01:29:01;;;;;;;9.35;7.00;;;;;;;18.18;72.80;100299.50;5052655;28;20410;-79
2021/06/08 01:31:31;;;;;;;10.52;6.40;;;;;;;18.25;72.63;100297.97;5053030;28;20128;-76
2021/06/08 01:34:01;;;;;;;9.27;6.75;;;;;;;18.25;72.75;100303.38;5052682;28;20128;-79
2021/06/08 01:36:34;;;;;;;8.75;6.10;;;;;;;18.47;71.11;100304.94;5052967;28;20049;-76
2021/06/08 01:39:05;;;;;;;8.90;6.40;;;;;;;18.44;71.15;100307.09;5052630;28;20045;-76
2021/06/08 01:41:33;;;;;;;9.85;6.85;;;;;;;18.37;71.79;100301.38;5052945;28;20037;-76
2021/06/08 01:44:03;;;;;;;9.18;6.80;;;;;;;18.38;71.52;100303.09;5052273;28;20533;-77
2021/06/08 01:46:31;;;;;;;8.23;6.65;;;;;;;18.39;71.33;100303.94;5053006;28;20150;-76
2021/06/08 01:48:59;;;;;;;12.43;6.53;;;;;;;18.43;71.05;100310.75;5052803;28;20041;-76
2021/06/08 01:51:35;;;;;;;9.23;6.38;;;;;;;18.44;71.33;100305.22;5052493;28;20049;-76
2021/06/08 01:54:13;;;;;;;8.55;6.43;;;;;;;18.46;71.36;100307.78;5055884;28;20525;-75
2021/06/08 01:56:45;;;;;;;8.38;6.90;;;;;;;18.45;71.40;100306.09;5056591;28;20040;-75
2021/06/08 01:59:21;;;;;;;10.07;7.18;;;;;;;18.69;69.91;100305.69;5056436;28;20051;-75
2021/06/08 02:01:56;;;;;;;9.70;6.93;;;;;;;18.60;69.72;100307.34;5056492;28;20048;-77
2021/06/08 02:04:26;;;;;;;11.65;6.53;;;;;;;18.74;69.11;100304.25;5056356;28;20454;-75
2021/06/08 02:07:07;;;;;;;12.32;6.28;;;;;;;18.80;68.71;100305.53;5056394;28;20045;-75
2021/06/08 02:09:47;;;;;;;10.10;6.80;;;;;;;18.95;67.21;100306.78;5056249;28;20102;-75
2021/06/08 02:12:17;;;;;;;8.98;6.18;;;;;;;18.67;68.00;100307.69;5056125;28;20037;-76
2021/06/08 02:14:49;;;;;;;8.63;5.75;;;;;;;18.63;68.32;100315.19;5056595;28;20429;-74
2021/06/08 02:17:21;;;;;;;7.30;6.00;;;;;;;18.61;67.28;100311.75;5055908;28;20130;-75
2021/06/08 02:19:52;;;;;;;9.32;6.00;;;;;;;18.64;67.52;100316.88;5055983;28;20095;-75
2021/06/08 02:22:23;;;;;;;9.50;6.03;;;;;;;18.50;68.02;100301.94;5055972;28;20049;-75
2021/06/08 02:24:53;;;;;;;8.15;5.90;;;;;;;18.67;67.34;100321.19;5056309;28;20070;-75
2021/06/08 02:27:25;;;;;;;9.30;5.90;;;;;;;18.60;67.49;100312.75;5055902;28;20075;-75
2021/06/08 02:29:56;;;;;;;7.25;5.80;;;;;;;18.60;67.70;100312.75;5055950;28;20052;-74
2021/06/08 02:32:25;;;;;;;8.95;5.93;;;;;;;18.69;67.26;100301.13;5055536;28;20079;-74
2021/06/08 02:34:56;;;;;;;9.18;6.20;;;;;;;18.65;67.41;100305.13;5055990;28;20447;-75
2021/06/08 02:37:26;;;;;;;7.47;5.47;;;;;;;18.58;67.56;100309.34;5055696;28;20041;-75
2021/06/08 02:39:56;;;;;;;7.80;6.10;;;;;;;18.52;68.13;100315.31;5056240;28;20474;-75
2021/06/08 02:42:24;;;;;;;8.35;5.70;;;;;;;18.62;67.78;100305.34;5055501;28;20083;-75
2021/06/08 02:44:54;;;;;;;7.72;6.07;;;;;;;18.69;67.35;100317.34;5055387;28;20096;-75
2021/06/08 02:47:22;;;;;;;7.68;5.80;;;;;;;18.82;66.99;100312.50;5055569;28;20048;-75
2021/06/08 02:49:51;;;;;;;8.73;5.97;;;;;;;18.70;67.37;100308.22;5055511;28;20445;-75
2021/06/08 02:52:20;;;;;;;8.10;5.97;;;;;;;18.83;66.88;100313.38;5055159;28;20044;-76
2021/06/08 02:54:50;;;;;;;7.53;6.20;;;;;;;18.99;66.38;100310.06;5054402;28;20066;-75
2021/06/08 02:57:21;;;;;;;7.20;5.28;;;;;;;18.72;67.49;100311.66;5055202;28;20048;-77
2021/06/08 02:59:51;;;;;;;6.80;5.53;;;;;;;18.62;68.10;100316.16;5055468;28;20053;-75
2021/06/08 03:02:23;;;;;;;7.68;6.38;;;;;;;18.56;68.28;100312.19;5054989;28;20045;-75
2021/06/08 03:04:56;;;;;;;7.88;5.72;;;;;;;18.62;67.76;100315.31;5054515;28;20051;-75
2021/06/08 03:07:25;;;;;;;8.15;5.80;;;;;;;18.77;67.41;100314.78;5055034;28;20494;-75
2021/06/08 03:09:56;;;;;;;8.40;6.20;;;;;;;18.73;67.41;100313.38;5054858;28;20041;-75
2021/06/08 03:12:30;;;;;;;7.80;6.25;;;;;;;18.73;67.54;100312.50;5055040;28;20087;-75
2021/06/08 03:15:01;;;;;;;8.20;5.75;;;;;;;18.95;67.11;100322.16;5055144;28;20041;-75
2021/06/08 03:17:31;;;;;;;8.43;6.00;;;;;;;18.88;67.12;100321.88;5054713;28;20073;-75
2021/06/08 03:20:09;;;;;;;9.30;6.78;;;;;;;18.76;67.83;100318.47;5055422;28;20095;-76
2021/06/08 03:22:40;;;;;;;10.63;7.15;;;;;;;18.70;68.12;100324.44;5054775;28;20045;-76
2021/06/08 03:25:10;;;;;;;11.38;7.15;;;;;;;18.83;67.75;100324.16;5054817;28;20076;-76
2021/06/08 03:27:41;;;;;;;11.25;7.13;;;;;;;18.68;68.12;100331.00;5054990;28;20107;-76
2021/06/08 03:30:10;;;;;;;9.57;6.65;;;;;;;18.85;67.82;100328.44;5054503;28;20553;-78
2021/06/08 03:32:39;;;;;;;11.23;7.10;;;;;;;18.85;67.50;100327.56;5054673;28;20063;-75
2021/06/08 03:35:10;;;;;;;10.98;6.50;;;;;;;18.95;67.21;100327.56;5054318;28;20053;-78
2021/06/08 03:37:40;;;;;;;10.05;6.55;;;;;;;18.88;67.66;100328.13;5055053;28;20477;-75
2021/06/08 03:40:09;;;;;;;8.20;6.25;;;;;;;19.00;67.07;100336.06;5054224;28;20045;-76
2021/06/08 03:42:39;;;;;;;8.90;6.43;;;;;;;19.15;66.94;100324.69;5054888;28;20045;-76
2021/06/08 03:45:13;;;;;;;9.07;6.30;;;;;;;19.21;66.39;100330.53;5054303;28;20084;-80
2021/06/08 03:47:42;;;;;;;8.82;6.68;;;;;;;19.28;66.38;100332.47;5053369;28;20049;-76
2021/06/08 03:50:14;;;;;;;8.50;6.15;;;;;;;19.21;66.54;100328.66;5054211;28;20072;-76
2021/06/08 03:52:43;;;;;;;9.20;6.30;;;;;;;19.30;66.18;100333.19;5054380;28;20044;-74
2021/06/08 03:55:12;;;;;;;8.40;6.90;;;;;;;19.34;66.45;100334.59;5054084;28;20040;-75
2021/06/08 03:57:45;;;;;;;12.07;6.95;;;;;;;19.22;67.23;100338.47;5054091;28;20478;-76
2021/06/08 04:00:16;;;;;;;7.63;6.50;;;;;;;19.28;67.58;100335.19;5053940;28;20045;-77
2021/06/08 04:02:45;;;;;;;8.35;6.70;;;;;;;19.29;66.61;100331.47;5054490;28;20041;-77
2021/06/08 04:05:14;;;;;;;9.50;7.07;;;;;;;19.19;67.29;100333.34;5053724;28;20098;-77
2021/06/08 04:07:44;;;;;;;13.02;7.28;;;;;;;18.97;68.67;100344.50;5054092;28;20060;-77
2021/06/08 04:10:19;;;;;;;9.82;6.70;;;;;;;19.20;67.46;100342.31;5053663;28;20041;-76
2021/06/08 04:12:49;;;;;;;11.50;7.05;;;;;;;19.16;67.91;100336.34;5054184;28;20044;-76
2021/06/08 04:15:18;;;;;;;9.45;6.95;;;;;;;19.24;67.89;100341.88;5053161;28;20095;-76
2021/06/08 04:17:46;;;;;;;9.98;6.57;;;;;;;19.26;67.91;100336.31;5053651;28;20128;-76
2021/06/08 04:20:15;;;;;;;11.07;7.80;;;;;;;19.20;68.10;100343.16;5053435;28;20041;-76
2021/06/08 04:22:46;;;;;;;11.05;6.85;;;;;;;19.39;67.44;100339.56;5053569;28;20045;-76
2021/06/08 04:25:16;;;;;;;10.95;7.60;;;;;;;19.74;66.32;100341.63;5053652;28;20124;-77
2021/06/08 04:27:44;;;;;;;9.95;6.95;;;;;;;21.23;60.92;100339.28;5053939;28;20455;-76
2021/06/08 04:30:15;;;;;;;13.05;7.65;;;;;;;22.77;56.19;100335.50;5053242;28;20045;-75
2021/06/08 04:32:43;;;;;;;11.57;6.20;;;;;;;23.30;53.91;100331.44;5053672;28;20041;-75
2021/06/08 04:35:12;;;;;;;8.25;5.95;;;;;;;24.04;52.18;100332.97;5053093;28;20456;-77
2021/06/08 04:37:40;;;;;;;13.02;6.47;;;;;;;24.71;49.96;100336.00;5053542;28;20040;-75
2021/06/08 04:40:11;;;;;;;9.05;5.90;;;;;;;24.83;49.17;100344.59;5053336;28;20056;-75
2021/06/08 04:42:43;;;;;;;10.10;6.35;;;;;;;25.27;47.89;100336.56;5053635;28;20049;-75
2021/06/08 04:45:12;;;;;;;8.73;5.50;;;;;;;25.65;46.75;100339.25;5053098;28;20053;-75
2021/06/08 04:47:42;;;;;;;8.43;5.20;;;;;;;25.82;46.19;100334.47;5052256;28;20057;-75
2021/06/08 04:50:15;;;;;;;11.30;5.95;;;;;;;25.91;46.36;100331.44;5053079;28;20041;-75
2021/06/08 04:52:43;;;;;;;8.80;5.70;;;;;;;26.06;45.63;100336.91;5053500;28;20045;-76
2021/06/08 04:55:12;;;;;;;9.05;5.78;;;;;;;26.30;44.80;100332.16;5053041;28;20163;-75
2021/06/08 04:57:40;;;;;;;9.10;6.07;;;;;;;27.17;42.34;100332.88;5053105;28;20410;-76
2021/06/08 05:00:11;;;;;;;9.45;5.57;;;;;;;27.37;42.23;100336.59;5052963;28;20395;-76
2021/06/08 05:02:43;;;;;;;8.88;5.82;;;;;;;27.34;42.25;100337.00;5053186;28;20043;-76
2021/06/08 05:05:17;;;;;;;11.63;6.35;;;;;;;26.78;43.19;100342.38;5053241;28;20048;-75
2021/06/08 05:07:50;;;;;;;11.18;5.82;;;;;;;27.36;42.87;100337.66;5052912;28;20539;-75
2021/06/08 05:10:20;;;;;;;11.52;6.00;;;;;;;28.15;40.57;100340.03;5053036;28;20041;-75
2021/06/08 05:12:50;;;;;;;9.13;5.55;;;;;;;27.26;42.71;100339.91;5052789;28;20045;-75
2021/06/08 05:15:19;;;;;;;11.77;5.32;;;;;;;27.38;41.80;100348.41;5052582;28;20045;-75
2021/06/08 05:17:50;;;;;;;9.98;5.32;;;;;;;27.78;40.83;100345.97;5052882;28;20045;-75
2021/06/08 05:20:19;;;;;;;8.95;5.40;;;;;;;27.65;41.42;100343.97;5052462;28;20053;-75
2021/06/08 05:22:50;;;;;;;7.07;4.82;;;;;;;27.84;40.02;100348.75;5052700;28;20049;-76
2021/06/08 05:25:18;;;;;;;8.43;5.30;;;;;;;27.98;40.76;100340.59;5052523;28;20048;-77
2021/06/08 05:27:47;;;;;;;10.02;5.63;;;;;;;28.24;39.92;100348.94;5054411;28;20079;-75
2021/06/08 05:30:16;;;;;;;10.23;5.82;;;;;;;28.67;39.33;100356.94;5056579;28;20049;-80
2021/06/08 05:32:45;;;;;;;7.53;5.00;;;;;;;28.35;39.85;100347.53;5056809;28;20482;-75
2021/06/08 05:35:14;;;;;;;9.52;5.20;;;;;;;27.62;41.03;100358.06;5056700;28;20073;-76
2021/06/08 05:37:42;;;;;;;12.73;5.43;;;;;;;28.58;39.72;100349.94;5056554;28;20543;-77
2021/06/08 05:40:14;;;;;;;8.98;5.25;;;;;;;29.04;39.25;100358.25;5056869;28;20060;-75
2021/06/08 05:42:42;;;;;;;7.90;5.40;;;;;;;28.95;38.76;100348.53;5056713;28;20040;-75
2021/06/08 05:45:11;;;;;;;11.98;5.20;;;;;;;29.70;36.72;100349.19;5056548;28;20140;-76
2021/06/08 05:47:39;;;;;;;9.20;5.13;;;;;;;29.82;36.45;100359.31;5056289;28;20490;-77
2021/06/08 05:50:08;;;;;;;8.75;5.47;;;;;;;30.07;36.28;100350.38;5056218;28;20049;-76
2021/06/08 05:52:38;;;;;;;9.35;5.40;;;;;;;30.43;35.22;100350.66;5056054;28;20482;-75
2021/06/08 05:55:07;;;;;;;8.35;5.05;;;;;;;30.17;36.03;100357.09;5056443;28;20049;-75
2021/06/08 05:57:34;;;;;;;12.07;5.18;;;;;;;30.29;35.62;100360.00;5056153;28;20045;-75
2021/06/08 06:00:04;;;;;;;7.53;4.82;;;;;;;30.38;34.97;100361.44;5056395;28;20044;-76
2021/06/08 06:02:35;;;;;;;7.97;4.80;;;;;;;30.36;35.12;100360.84;5055959;28;20033;-75
2021/06/08 06:05:03;;;;;;;7.20;4.97;;;;;;;30.56;34.02;100348.88;5056031;28;20041;-75
2021/06/08 06:07:32;;;;;;;9.20;4.72;;;;;;;30.43;33.42;100358.06;5055731;28;20486;-75
2021/06/08 06:10:03;;;;;;;11.65;4.40;;;;;;;30.39;34.03;100354.88;5056207;28;20094;-75
2021/06/08 06:12:32;;;;;;;10.00;4.47;;;;;;;30.53;34.80;100361.19;5055915;28;20371;-75
2021/06/08 06:15:04;;;;;;;10.18;4.72;;;;;;;31.16;33.05;100358.44;5056139;28;20095;-76
2021/06/08 06:17:35;;;;;;;9.93;4.53;;;;;;;31.79;31.10;100355.59;5055867;28;20116;-75
2021/06/08 06:20:07;;;;;;;9.55;4.35;;;;;;;31.21;32.21;100366.91;5055952;28;20075;-75
2021/06/08 06:22:36;;;;;;;7.43;4.28;;;;;;;31.64;31.71;100357.81;5055890;28;20047;-75
2021/06/08 06:25:08;;;;;;;6.90;4.28;;;;;;;31.65;30.71;100364.19;5055800;28;20075;-75
2021/06/08 06:27:37;;;;;;;6.85;3.95;;;;;;;32.01;29.96;100366.16;5055741;28;20482;-76
2021/06/08 06:30:07;;;;;;;8.40;4.28;;;;;;;32.25;28.91;100370.75;5055526;28;20049;-75
2021/06/08 06:32:36;;;;;;;9.10;4.30;;;;;;;31.44;30.20;100374.56;5054415;28;20147;-76
2021/06/08 06:35:06;;;;;;;8.98;4.20;;;;;;;31.58;30.03;100369.78;5055538;28;20052;-76
2021/06/08 06:37:35;;;;;;;8.77;4.32;;;;;;;31.59;30.84;100361.28;5055107;28;20072;-76
2021/06/08 06:40:10;;;;;;;6.95;4.30;;;;;;;31.69;30.95;100366.28;5055325;28;20044;-76
2021/06/08 06:42:42;;;;;;;10.00;4.32;;;;;;;31.89;31.05;100371.59;5055479;28;20045;-76
2021/06/08 06:45:16;;;;;;;7.15;4.25;;;;;;;31.77;31.19;100370.69;5054236;28;20059;-76
2021/06/08 06:47:44;;;;;;;9.20;4.60;;;;;;;31.55;30.13;100370.22;5055143;28;20120;-75
2021/06/08 06:50:36;;;;;;;9.23;4.03;;;;;;;31.78;30.54;100364.94;5037523;28;20179;-75
2021/06/08 06:53:05;;;;;;;9.40;4.15;;;;;;;31.44;31.19;100368.19;5055425;28;20040;-76
2021/06/08 06:55:35;;;;;;;9.50;4.18;;;;;;;31.21;31.77;100366.91;5055069;28;20072;-76
2021/06/08 06:58:04;;;;;;;7.45;4.28;;;;;;;30.35;32.67;100363.81;5055095;28;20103;-75
2021/06/08 07:00:31;;;;;;;9.98;4.30;;;;;;;30.08;33.89;100365.81;5054746;28;20543;-75
2021/06/08 07:03:01;;;;;;;8.93;4.57;;;;;;;29.35;35.16;100368.66;5055067;28;20072;-75
2021/06/08 07:05:31;;;;;;;8.82;4.20;;;;;;;28.89;35.78;100358.47;5054654;28;20072;-75
2021/06/08 07:08:03;;;;;;;9.57;4.72;;;;;;;28.52;36.82;100366.16;5055075;28;20052;-75
2021/06/08 07:10:31;;;;;;;9.70;4.80;;;;;;;28.63;36.70;100358.38;5055070;28;20471;-75
2021/06/08 07:13:05;;;;;;;6.60;4.18;;;;;;;28.20;37.22;100359.47;5054894;28;20094;-75
2021/06/08 07:15:35;;;;;;;11.38;4.35;;;;;;;28.55;36.43;100361.31;5054886;28;20044;-75
2021/06/08 07:18:04;;;;;;;8.35;4.60;;;;;;;28.24;37.32;100360.75;5054660;28;20060;-74
2021/06/08 07:20:33;;;;;;;6.50;4.22;;;;;;;27.66;38.28;100362.97;5054905;28;20037;-75
2021/06/08 07:23:02;;;;;;;7.00;4.57;;;;;;;28.21;37.49;100360.34;5054593;28;20045;-77
2021/06/08 07:25:34;;;;;;;8.35;4.20;;;;;;;28.55;37.40;100361.31;5054529;28;20049;-77
2021/06/08 07:28:05;;;;;;;7.33;4.33;;;;;;;28.51;36.04;100369.97;5054796;28;20051;-76
2021/06/08 07:30:37;;;;;;;6.18;3.88;;;;;;;28.59;35.46;100362.59;5054657;28;20552;-75
2021/06/08 07:33:11;;;;;;;8.33;4.00;;;;;;;28.74;32.74;100364.09;5055035;28;20103;-75
2021/06/08 07:35:53;;;;;;;6.10;4.10;;;;;;;28.86;31.03;100363.53;5054415;28;20072;-75
2021/06/08 07:38:24;;;;;;;9.57;3.90;;;;;;;28.80;31.26;100365.19;5054688;28;20041;-75
2021/06/08 07:40:58;;;;;;;7.22;3.60;;;;;;;28.83;31.21;100364.75;5054534;28;20467;-75
2021/06/08 07:43:33;;;;;;;7.93;3.70;;;;;;;28.74;31.07;100368.75;5054594;28;20482;-76
2021/06/08 07:46:09;;;;;;;6.32;3.50;;;;;;;28.26;31.77;100368.78;5054493;28;20107;-76
2021/06/08 07:48:42;;;;;;;6.40;3.53;;;;;;;27.94;31.25;100376.66;5054158;28;20044;-76
2021/06/08 07:51:11;;;;;;;4.95;3.42;;;;;;;27.97;30.94;100369.06;5053678;28;20041;-76
2021/06/08 07:53:39;;;;;;;5.63;3.40;;;;;;;27.91;31.58;100366.09;5054276;28;20110;-75
2021/06/08 07:56:08;;;;;;;6.10;3.40;;;;;;;27.60;32.43;100369.25;5054170;28;20041;-76
2021/06/08 07:58:38;;;;;;;6.05;3.50;;;;;;;27.92;32.21;100373.25;5054238;28;20041;-75
2021/06/08 08:01:08;;;;;;;5.25;3.97;;;;;;;28.16;32.17;100368.31;5054067;28;20088;-76
2021/06/08 08:03:40;;;;;;;6.93;4.03;;;;;;;28.19;32.27;100368.75;5053104;28;20053;-76
2021/06/08 08:06:10;;;;;;;5.10;3.63;;;;;;;28.40;31.94;100369.72;5054148;28;20139;-76
2021/06/08 08:08:39;;;;;;;6.68;3.55;;;;;;;28.21;31.65;100361.16;5053890;28;20072;-76
2021/06/08 08:11:09;;;;;;;7.55;3.65;;;;;;;27.76;31.56;100370.84;5053898;28;20045;-76
2021/06/08 08:13:40;;;;;;;8.80;3.40;;;;;;;27.38;31.22;100375.78;5053582;28;20383;-76
2021/06/08 08:16:10;;;;;;;6.88;4.05;;;;;;;27.33;32.37;100373.66;5054311;28;20045;-75
2021/06/08 08:18:41;;;;;;;6.38;3.70;;;;;;;27.31;32.03;100363.94;5053752;28;20064;-75
2021/06/08 08:21:10;;;;;;;5.82;3.80;;;;;;;27.16;31.74;100369.50;5053843;28;20044;-76
2021/06/08 08:23:39;;;;;;;5.25;3.85;;;;;;;26.93;31.88;100366.13;5053425;28;20588;-76
2021/06/08 08:26:09;;;;;;;7.95;3.92;;;;;;;26.97;32.50;100367.41;5053857;28;20041;-76
2021/06/08 08:28:40;;;;;;;8.10;3.50;;;;;;;27.10;32.28;100364.81;5053484;28;20394;-76
2021/06/08 08:31:10;;;;;;;6.97;3.40;;;;;;;27.05;31.97;100372.78;5053603;28;20053;-76
2021/06/08 08:33:38;;;;;;;5.97;3.75;;;;;;;27.26;31.79;100370.03;5053334;28;20045;-77
2021/06/08 08:36:07;;;;;;;7.75;4.00;;;;;;;27.58;31.70;100365.00;5052084;28;20053;-77
2021/06/08 08:38:35;;;;;;;8.95;3.70;;;;;;;27.71;31.42;100365.13;5052970;28;20048;-76
2021/06/08 08:41:03;;;;;;;5.70;3.75;;;;;;;27.35;31.72;100370.72;5053158;28;20052;-76
2021/06/08 08:43:44;;;;;;;6.07;3.67;;;;;;;27.42;32.05;100363.41;5053143;28;20045;-76
2021/06/08 08:46:13;;;;;;;6.47;3.80;;;;;;;27.67;31.41;100361.06;5052821;28;20064;-76
2021/06/08 08:48:42;;;;;;;6.22;3.75;;;;;;;27.69;30.82;100367.19;5052851;28;20498;-77
2021/06/08 08:51:11;;;;;;;5.95;3.70;;;;;;;27.86;30.50;100365.84;5052757;28;20044;-77
2021/06/08 08:53:40;;;;;;;7.55;3.95;;;;;;;28.07;30.77;100364.03;5052692;28;20037;-77
2021/06/08 08:56:26;;;;;;;5.93;3.53;;;;;;;28.19;30.35;100362.44;5053134;28;20068;-77
2021/06/08 08:58:55;;;;;;;7.97;3.28;;;;;;;28.31;30.35;100366.31;5052884;28;20045;-76
2021/06/08 09:01:23;;;;;;;6.28;3.53;;;;;;;28.18;30.64;100372.56;5052820;28;20457;-76
2021/06/08 09:03:52;;;;;;;5.70;3.70;;;;;;;27.46;32.54;100374.81;5051995;28;20502;-76
2021/06/08 09:06:21;;;;;;;7.68;3.55;;;;;;;27.27;33.51;100379.94;5052789;28;20071;-77
2021/06/08 09:08:49;;;;;;;5.63;3.55;;;;;;;27.30;33.82;100368.56;5052813;28;20071;-76
2021/06/08 09:11:19;;;;;;;7.53;3.70;;;;;;;27.27;33.13;100366.22;5052813;28;20107;-76
2021/06/08 09:13:47;;;;;;;7.70;3.95;;;;;;;27.70;32.06;100355.22;5052715;28;20437;-76
2021/06/08 09:16:16;;;;;;;7.60;3.80;;;;;;;27.55;32.93;100362.66;5052651;28;20041;-76
2021/06/08 09:18:44;;;;;;;5.95;3.70;;;;;;;27.68;33.34;100368.25;5052398;28;20049;-76
2021/06/08 09:21:18;;;;;;;7.50;3.90;;;;;;;27.80;31.68;100363.06;5052958;28;20048;-76
2021/06/08 09:23:46;;;;;;;6.68;3.88;;;;;;;27.60;32.30;100355.53;5052895;28;20069;-76
2021/06/08 09:26:15;;;;;;;10.55;4.07;;;;;;;27.90;32.17;100358.06;5052831;28;20037;-75
2021/06/08 09:28:44;;;;;;;6.15;3.80;;;;;;;28.17;32.06;100353.53;5052503;28;20051;-76
2021/06/08 09:31:20;;;;;;;6.78;4.20;;;;;;;28.27;31.38;100354.00;5052902;28;20045;-76
2021/06/08 09:33:49;;;;;;;5.30;3.67;;;;;;;28.21;31.60;100349.34;5052653;28;20127;-76
2021/06/08 09:36:21;;;;;;;5.63;3.63;;;;;;;28.20;30.79;100347.66;5052866;28;20123;-76
2021/06/08 09:38:52;;;;;;;5.20;3.83;;;;;;;28.25;30.57;100353.38;5052286;28;20099;-76
2021/06/08 09:41:23;;;;;;;6.47;3.80;;;;;;;28.16;31.45;100358.19;5052752;28;20045;-75
2021/06/08 09:43:57;;;;;;;7.40;3.90;;;;;;;28.17;31.25;100346.16;5052504;28;20125;-75
2021/06/08 09:46:31;;;;;;;6.70;3.80;;;;;;;28.26;31.39;100352.31;5052700;28;20056;-76
2021/06/08 09:49:02;;;;;;;4.38;3.30;;;;;;;28.37;31.15;100340.78;5052836;28;20158;-76
2021/06/08 09:51:54;;;;;;;6.78;4.32;;;;;;;28.61;30.50;100341.28;5052468;28;20045;-75
2021/06/08 09:54:31;;;;;;;7.07;4.40;;;;;;;28.22;30.95;100348.31;5052712;28;20789;-75
2021/06/08 09:57:17;;;;;;;7.55;3.97;;;;;;;28.09;30.88;100342.78;5052600;28;20048;-75
2021/06/08 09:59:47;;;;;;;7.80;4.00;;;;;;;28.07;30.39;100339.38;5052250;28;20052;-75
2021/06/08 10:02:28;;;;;;;6.35;3.97;;;;;;;28.29;31.02;100338.25;5052372;28;20063;-75
2021/06/08 10:05:15;;;;;;;7.35;4.20;;;;;;;28.68;30.79;100333.94;5052205;28;20086;-76
2021/06/08 10:07:43;;;;;;;6.38;4.03;;;;;;;28.75;30.40;100337.50;5052169;28;20071;-75
2021/06/08 10:10:14;;;;;;;6.55;4.07;;;;;;;28.65;31.15;100332.41;5052359;28;20542;-75
2021/06/08 10:12:58;;;;;;;7.22;3.70;;;;;;;28.43;32.20;100331.75;5051972;28;20211;-76
2021/06/08 10:15:28;;;;;;;7.53;4.22;;;;;;;28.04;31.35;100339.78;5055966;28;20049;-75
2021/06/08 10:17:59;;;;;;;6.05;3.80;;;;;;;27.41;31.89;100336.19;5055825;28;20072;-76
2021/06/08 10:20:29;;;;;;;7.30;4.20;;;;;;;27.54;31.59;100333.56;5055978;28;20044;-75
2021/06/08 10:23:02;;;;;;;5.50;4.30;;;;;;;27.52;31.20;100331.03;5055841;28;20052;-75
2021/06/08 10:25:30;;;;;;;5.95;3.90;;;;;;;27.72;31.98;100327.59;5055737;28;20059;-75
2021/06/08 10:27:59;;;;;;;5.55;3.83;;;;;;;27.72;31.27;100333.94;5055525;28;20041;-76
2021/06/08 10:30:27;;;;;;;5.63;3.85;;;;;;;27.52;31.33;100328.31;5055809;28;20075;-76
2021/06/08 10:32:55;;;;;;;9.32;3.55;;;;;;;27.49;31.80;100330.56;5055517;28;20095;-76
2021/06/08 10:35:44;;;;;;;7.35;4.05;;;;;;;27.46;31.81;100329.09;5055236;28;20061;-76
2021/06/08 10:38:13;;;;;;;5.97;4.00;;;;;;;27.65;31.65;100319.31;5055837;28;20037;-76
2021/06/08 10:40:42;;;;;;;8.25;4.20;;;;;;;28.18;30.11;100323.19;5054312;28;20128;-76
2021/06/08 10:43:16;;;;;;;5.20;3.63;;;;;;;28.20;29.78;100318.34;5054939;28;20064;-75
2021/06/08 10:45:45;;;;;;;7.68;3.97;;;;;;;28.35;29.98;100311.88;5055595;28;20053;-76
2021/06/08 10:48:17;;;;;;;6.90;4.10;;;;;;;28.39;30.25;100321.41;5054029;28;20044;-76
2021/06/08 10:50:48;;;;;;;7.80;4.20;;;;;;;28.41;29.27;100316.53;5055075;28;20052;-76
2021/06/08 10:53:29;;;;;;;7.88;4.72;;;;;;;28.60;29.28;100306.66;5054142;28;20051;-75
2021/06/08 10:55:57;;;;;;;6.93;4.10;;;;;;;28.18;30.30;100312.22;5055137;28;20057;-74
2021/06/08 10:58:48;;;;;;;8.60;4.70;;;;;;;27.71;30.16;100307.59;5055122;28;20126;-77
2021/06/08 11:01:45;;;;;;;7.78;4.60;;;;;;;27.74;30.33;100309.91;5055431;28;20047;-77
2021/06/08 11:04:19;;;;;;;6.60;4.30;;;;;;;27.62;30.19;100304.13;5055379;28;20045;-76
2021/06/08 11:06:52;;;;;;;6.80;4.47;;;;;;;27.87;29.54;100309.97;5054834;28;20490;-76
2021/06/08 11:09:32;;;;;;;7.00;4.10;;;;;;;27.76;30.93;100296.84;5055120;28;20052;-75
2021/06/08 11:12:04;;;;;;;9.05;4.70;;;;;;;27.97;31.02;100297.78;5055058;28;20091;-75
2021/06/08 11:15:02;;;;;;;6.22;3.97;;;;;;;28.41;30.52;100298.19;5054939;28;20052;-75
2021/06/08 11:17:48;;;;;;;7.35;4.10;;;;;;;28.47;28.92;100299.25;5054959;28;20041;-75
2021/06/08 11:20:26;;;;;;;5.97;3.65;;;;;;;28.49;28.28;100289.78;5054891;28;20041;-75
2021/06/08 11:23:02;;;;;;;7.38;3.85;;;;;;;28.37;28.64;100299.63;5054665;28;20085;-75
2021/06/08 11:25:37;;;;;;;10.05;3.90;;;;;;;28.48;28.98;100296.31;5053873;28;20041;-75
2021/06/08 11:28:07;;;;;;;7.05;3.80;;;;;;;28.69;29.22;100292.53;5054747;28;20389;-76
2021/06/08 11:30:37;;;;;;;6.13;3.80;;;;;;;28.75;28.42;100294.44;5054976;28;20052;-76
2021/06/08 11:33:08;;;;;;;6.05;3.47;;;;;;;28.54;29.20;100299.25;5054821;28;20072;-76
2021/06/08 11:35:41;;;;;;;6.20;3.45;;;;;;;28.54;29.63;100299.25;5054904;28;20056;-75
2021/06/08 11:38:12;;;;;;;6.20;3.65;;;;;;;28.43;29.69;100287.00;5054650;28;20128;-75
2021/06/08 11:40:50;;;;;;;8.90;3.50;;;;;;;28.30;29.21;100293.31;5054509;28;20040;-75
2021/06/08 11:43:57;;;;;;;5.88;3.58;;;;;;;27.77;30.09;100298.53;5054629;28;20049;-76